地図

経路データ

SID SEASON NUMBER BASIN SUBBASIN NAME ISO_TIME NATURE LAT LON WMO_WIND WMO_PRES WMO_AGENCY TRACK_TYPE DIST2LAND LANDFALL IFLAG USA_AGENCY USA_ATCF_ID USA_LAT USA_LON USA_RECORD USA_STATUS USA_WIND USA_PRES USA_SSHS USA_R34_NE USA_R34_SE USA_R34_SW USA_R34_NW USA_R50_NE USA_R50_SE USA_R50_SW USA_R50_NW USA_R64_NE USA_R64_SE USA_R64_SW USA_R64_NW USA_POCI USA_ROCI USA_RMW USA_EYE TOKYO_LAT TOKYO_LON TOKYO_GRADE TOKYO_WIND TOKYO_PRES TOKYO_R50_DIR TOKYO_R50_LONG TOKYO_R50_SHORT TOKYO_R30_DIR TOKYO_R30_LONG TOKYO_R30_SHORT TOKYO_LAND CMA_LAT CMA_LON CMA_CAT CMA_WIND CMA_PRES HKO_LAT HKO_LON HKO_CAT HKO_WIND HKO_PRES NEWDELHI_LAT NEWDELHI_LON NEWDELHI_GRADE NEWDELHI_WIND NEWDELHI_PRES NEWDELHI_CI NEWDELHI_DP NEWDELHI_POCI REUNION_LAT REUNION_LON REUNION_TYPE REUNION_WIND REUNION_PRES REUNION_TNUM REUNION_CI REUNION_RMW REUNION_R34_NE REUNION_R34_SE REUNION_R34_SW REUNION_R34_NW REUNION_R50_NE REUNION_R50_SE REUNION_R50_SW REUNION_R50_NW REUNION_R64_NE REUNION_R64_SE REUNION_R64_SW REUNION_R64_NW BOM_LAT BOM_LON BOM_TYPE BOM_WIND BOM_PRES BOM_TNUM BOM_CI BOM_RMW BOM_R34_NE BOM_R34_SE BOM_R34_SW BOM_R34_NW BOM_R50_NE BOM_R50_SE BOM_R50_SW BOM_R50_NW BOM_R64_NE BOM_R64_SE BOM_R64_SW BOM_R64_NW BOM_ROCI BOM_POCI BOM_EYE BOM_POS_METHOD BOM_PRES_METHOD NADI_LAT NADI_LON NADI_CAT NADI_WIND NADI_PRES WELLINGTON_LAT WELLINGTON_LON WELLINGTON_WIND WELLINGTON_PRES DS824_LAT DS824_LON DS824_STAGE DS824_WIND DS824_PRES TD9636_LAT TD9636_LON TD9636_STAGE TD9636_WIND TD9636_PRES TD9635_LAT TD9635_LON TD9635_WIND TD9635_PRES TD9635_ROCI NEUMANN_LAT NEUMANN_LON NEUMANN_CLASS NEUMANN_WIND NEUMANN_PRES MLC_LAT MLC_LON MLC_CLASS MLC_WIND MLC_PRES USA_GUST BOM_GUST BOM_GUST_PER REUNION_GUST REUNION_GUST_PER USA_SEAHGT USA_SEARAD_NE USA_SEARAD_SE USA_SEARAD_SW USA_SEARAD_NW STORM_SPEED STORM_DIR
1957159N25271 1957 32 NA GM NOT_NAMED 1957-06-08 06:00:00 TS 25.0000 -89.2000 35 hurdat_atl main 395 371 O_____________ hurdat_atl AL011957 25.0000 -89.2000 TS 35 0 19 40
1957159N25271 1957 32 NA GM NOT_NAMED 1957-06-08 09:00:00 TS 25.7332 -88.5141 main 373 307 P_____________ AL011957 25.7332 -88.5141 TS 37 0 20 40
1957159N25271 1957 32 NA GM NOT_NAMED 1957-06-08 12:00:00 TS 26.5000 -87.8000 40 1002 hurdat_atl main 307 272 O_____________ hurdat_atl AL011957 26.5000 -87.8000 TS 40 1002 0 21 40
1957159N25271 1957 32 NA GM NOT_NAMED 1957-06-08 15:00:00 TS 27.3269 -87.0361 main 279 198 P_____________ AL011957 27.3269 -87.0361 TS 42 1001 0 22 40
1957159N25271 1957 32 NA GM NOT_NAMED 1957-06-08 18:00:00 TS 28.2000 -86.2000 45 hurdat_atl main 184 66 I_____________ hurdat_atl AL011957 28.2000 -86.2000 TS 45 1001 0 25 42
1957159N25271 1957 32 NA GM NOT_NAMED 1957-06-08 21:00:00 TS 29.1831 -85.1662 main 55 0 P_____________ AL011957 29.1831 -85.1662 TS 45 1000 0 25 43
1957159N25271 1957 32 NA GM NOT_NAMED 1957-06-09 00:00:00 TS 30.0000 -84.3000 45 1000 hurdat_atl main 9 0 O_____________ hurdat_atl AL011957 30.0000 -84.3000 TS 45 1000 0 21 42
1957159N25271 1957 32 NA GM NOT_NAMED 1957-06-09 00:30:00 TS 30.1000 -84.2000 45 1000 hurdat_atl main 0 0 O_____________ hurdat_atl AL011957 30.1000 -84.2000 L TS 45 1000 0 21 43
1957159N25271 1957 32 NA NA NOT_NAMED 1957-06-09 03:00:00 TS 30.7730 -83.4625 main 0 0 P_____________ AL011957 30.7730 -83.4625 TS 40 1001 0 24 47
1957159N25271 1957 32 NA NA NOT_NAMED 1957-06-09 06:00:00 TS 31.6000 -82.3000 35 1003 hurdat_atl main 0 0 O_____________ hurdat_atl AL011957 31.6000 -82.3000 TS 35 1003 0 22 58
1957159N25271 1957 32 NA NA NOT_NAMED 1957-06-09 09:00:00 TS 31.9607 -81.2423 main 0 0 P_____________ AL011957 31.9607 -81.2423 TS 35 1001 0 19 74
1957159N25271 1957 32 NA NA NOT_NAMED 1957-06-09 12:00:00 TS 32.1000 -80.2000 35 1000 hurdat_atl main 43 43 O_____________ hurdat_atl AL011957 32.1000 -80.2000 TS 35 1000 0 17 81
1957159N25271 1957 32 NA NA NOT_NAMED 1957-06-09 15:00:00 TS 32.2288 -79.1992 main 86 86 P_____________ AL011957 32.2288 -79.1992 TS 40 0 17 83
1957159N25271 1957 32 NA NA NOT_NAMED 1957-06-09 18:00:00 TS 32.3000 -78.2000 45 hurdat_atl main 136 136 O_____________ hurdat_atl AL011957 32.3000 -78.2000 TS 45 0 17 86
1957159N25271 1957 32 NA NA NOT_NAMED 1957-06-09 21:00:00 TS 32.3497 -77.1419 main 197 186 P_____________ AL011957 32.3497 -77.1419 TS 50 0 18 87
1957159N25271 1957 32 NA NA NOT_NAMED 1957-06-10 00:00:00 TS 32.4000 -76.1000 55 hurdat_atl main 243 243 O_____________ hurdat_atl AL011957 32.4000 -76.1000 TS 55 0 17 85
1957159N25271 1957 32 NA NA NOT_NAMED 1957-06-10 03:00:00 TS 32.4919 -75.1126 main 277 277 P_____________ AL011957 32.4919 -75.1126 TS 60 0 16 83
1957159N25271 1957 32 NA NA NOT_NAMED 1957-06-10 06:00:00 ET 32.6000 -74.2000 65 hurdat_atl main 316 316 O_____________ hurdat_atl AL011957 32.6000 -74.2000 EX 65 -4 15 80
1957159N25271 1957 32 NA NA NOT_NAMED 1957-06-10 09:00:00 ET 32.7448 -73.3333 main 369 362 P_____________ AL011957 32.7448 -73.3333 EX 65 -4 14 82
1957159N25271 1957 32 NA NA NOT_NAMED 1957-06-10 12:00:00 ET 32.8000 -72.6000 65 996 hurdat_atl main 413 413 O_____________ hurdat_atl AL011957 32.8000 -72.6000 EX 65 996 -4 11 95
1957159N25271 1957 32 NA NA NOT_NAMED 1957-06-10 15:00:00 ET 32.6517 -72.0470 main 466 466 P_____________ AL011957 32.6517 -72.0470 EX 65 -4 9 115
1957159N25271 1957 32 NA NA NOT_NAMED 1957-06-10 18:00:00 ET 32.4000 -71.6000 65 hurdat_atl main 515 515 O_____________ hurdat_atl AL011957 32.4000 -71.6000 EX 65 -4 9 123
1957159N25271 1957 32 NA NA NOT_NAMED 1957-06-10 21:00:00 ET 32.1573 -71.1351 main 567 567 P_____________ AL011957 32.1573 -71.1351 EX 62 -4 9 123
1957159N25271 1957 32 NA NA NOT_NAMED 1957-06-11 00:00:00 ET 31.9000 -70.7000 60 hurdat_atl main 617 617 O_____________ hurdat_atl AL011957 31.9000 -70.7000 EX 60 -4 9 125
1957159N25271 1957 32 NA NA NOT_NAMED 1957-06-11 03:00:00 ET 31.6574 -70.2853 main 660 660 P_____________ AL011957 31.6574 -70.2853 EX 57 -4 8 126
1957159N25271 1957 32 NA NA NOT_NAMED 1957-06-11 06:00:00 ET 31.4000 -69.9000 55 hurdat_atl main 711 711 O_____________ hurdat_atl AL011957 31.4000 -69.9000 EX 55 -4 9 134
1957159N25271 1957 32 NA NA NOT_NAMED 1957-06-11 09:00:00 ET 31.0548 -69.5421 main 761 761 P_____________ AL011957 31.0548 -69.5421 EX 52 -4 8 135
1957159N25271 1957 32 NA NA NOT_NAMED 1957-06-11 12:00:00 ET 30.8000 -69.2000 50 hurdat_atl main 804 804 O_____________ hurdat_atl AL011957 30.8000 -69.2000 EX 50 -4 7 113
1957159N25271 1957 32 NA NA NOT_NAMED 1957-06-11 15:00:00 ET 30.7975 -68.8356 main 834 834 P_____________ AL011957 30.7975 -68.8356 EX 50 -4 6 81
1957159N25271 1957 32 NA NA NOT_NAMED 1957-06-11 18:00:00 ET 30.9000 -68.5000 50 hurdat_atl main 847 847 O_____________ hurdat_atl AL011957 30.9000 -68.5000 EX 50 -4 5 74
1957159N25271 1957 32 NA NA NOT_NAMED 1957-06-11 21:00:00 ET 30.9499 -68.2350 main 869 862 P_____________ AL011957 30.9499 -68.2350 EX 47 -4 4 77
1957159N25271 1957 32 NA NA NOT_NAMED 1957-06-12 00:00:00 ET 31.0000 -68.0000 45 hurdat_atl main 876 876 O_____________ hurdat_atl AL011957 31.0000 -68.0000 EX 45 -4 4 79
1957159N25271 1957 32 NA NA NOT_NAMED 1957-06-12 03:00:00 ET 31.0350 -67.7349 main 898 898 P_____________ AL011957 31.0350 -67.7349 EX 42 -4 4 77
1957159N25271 1957 32 NA NA NOT_NAMED 1957-06-12 06:00:00 ET 31.1000 -67.5000 40 hurdat_atl main 906 906 O_____________ hurdat_atl AL011957 31.1000 -67.5000 EX 40 -4 4 60
1957159N25271 1957 32 NA NA NOT_NAMED 1957-06-12 09:00:00 ET 31.2274 -67.3499 main 915 908 P_____________ AL011957 31.2274 -67.3499 EX 40 -4 4 40
1957159N25271 1957 32 NA NA NOT_NAMED 1957-06-12 12:00:00 ET 31.4000 -67.2000 40 hurdat_atl main 910 910 O_____________ hurdat_atl AL011957 31.4000 -67.2000 EX 40 -4 5 41
1957159N25271 1957 32 NA NA NOT_NAMED 1957-06-12 15:00:00 ET 31.5925 -66.9725 main 913 913 P_____________ AL011957 31.5925 -66.9725 EX 40 -4 6 47
1957159N25271 1957 32 NA NA NOT_NAMED 1957-06-12 18:00:00 ET 31.8000 -66.7000 40 hurdat_atl main 925 925 O_____________ hurdat_atl AL011957 31.8000 -66.7000 EX 40 -4 6 47
1957159N25271 1957 32 NA NA NOT_NAMED 1957-06-12 21:00:00 ET 32.0299 -66.4227 main 938 933 P_____________ AL011957 32.0299 -66.4227 EX 40 -4 6 52
1957159N25271 1957 32 NA NA NOT_NAMED 1957-06-13 00:00:00 ET 32.2000 -66.1000 40 hurdat_atl main 952 952 O_____________ hurdat_atl AL011957 32.2000 -66.1000 EX 40 -4 6 71
1957159N25271 1957 32 NA NA NOT_NAMED 1957-06-13 03:00:00 ET 32.2220 -65.7595 main 977 977 P_____________ AL011957 32.2220 -65.7595 EX 40 -4 7 90
1957159N25271 1957 32 NA NA NOT_NAMED 1957-06-13 06:00:00 ET 32.2000 -65.3000 40 hurdat_atl main 1019 1019 O_____________ hurdat_atl AL011957 32.2000 -65.3000 EX 40 -4 9 90
1957159N25271 1957 32 NA NA NOT_NAMED 1957-06-13 09:00:00 ET 32.2201 -64.6520 main 1070 1070 P_____________ AL011957 32.2201 -64.6520 EX 40 -4 12 85
1957159N25271 1957 32 NA NA NOT_NAMED 1957-06-13 12:00:00 ET 32.3000 -63.9000 40 hurdat_atl main 1134 1134 O_____________ hurdat_atl AL011957 32.3000 -63.9000 EX 40 -4 13 79
1957159N25271 1957 32 NA NA NOT_NAMED 1957-06-13 15:00:00 ET 32.4699 -63.1427 main 1191 1191 P_____________ AL011957 32.4699 -63.1427 EX 40 -4 13 72
1957159N25271 1957 32 NA NA NOT_NAMED 1957-06-13 18:00:00 ET 32.7000 -62.4000 40 hurdat_atl main 1205 1205 O_____________ hurdat_atl AL011957 32.7000 -62.4000 EX 40 -4 13 68
1957159N25271 1957 32 NA NA NOT_NAMED 1957-06-13 21:00:00 ET 32.9419 -61.7347 main 1220 1200 P_____________ AL011957 32.9419 -61.7347 EX 40 -4 12 65
1957159N25271 1957 32 NA NA NOT_NAMED 1957-06-14 00:00:00 ET 33.2000 -61.1000 40 hurdat_atl main 1203 1192 O_____________ hurdat_atl AL011957 33.2000 -61.1000 EX 40 -4 12 65
1957159N25271 1957 32 NA NA NOT_NAMED 1957-06-14 03:00:00 ET 33.4575 -60.4275 main 1191 1186 P_____________ AL011957 33.4575 -60.4275 EX 40 -4 12 65
1957159N25271 1957 32 NA NA NOT_NAMED 1957-06-14 06:00:00 ET 33.7000 -59.8000 40 hurdat_atl main 1189 1183 O_____________ hurdat_atl AL011957 33.7000 -59.8000 EX 40 -4 11 65
1957159N25271 1957 32 NA NA NOT_NAMED 1957-06-14 09:00:00 ET 33.9073 -59.2472 main 1191 1182 P_____________ AL011957 33.9073 -59.2472 EX 40 -4 9 64
1957159N25271 1957 32 NA NA NOT_NAMED 1957-06-14 12:00:00 ET 34.1000 -58.8000 40 hurdat_atl main 1186 1179 O_____________ hurdat_atl AL011957 34.1000 -58.8000 EX 40 -4 8 58
1957159N25271 1957 32 NA NA NOT_NAMED 1957-06-14 15:00:00 ET 34.3298 -58.4400 main 1183 1168 P_____________ AL011957 34.3298 -58.4400 EX 40 -4 6 51
1957159N25271 1957 32 NA NA NOT_NAMED 1957-06-14 18:00:00 ET 34.5000 -58.2000 40 hurdat_atl main 1172 1167 O_____________ hurdat_atl AL011957 34.5000 -58.2000 EX 40 -4 4 56
1957159N25271 1957 32 NA NA NOT_NAMED 1957-06-14 21:00:00 ET 34.5673 -58.0170 main 1172 1172 P_____________ AL011957 34.5673 -58.0170 EX 37 -4 2 90
1957159N25271 1957 32 NA NA NOT_NAMED 1957-06-15 00:00:00 ET 34.5000 -58.0000 35 hurdat_atl main 1181 1181 O_____________ hurdat_atl AL011957 34.5000 -58.0000 EX 35 -4 3 203
1957159N25271 1957 32 NA NA NOT_NAMED 1957-06-15 03:00:00 ET 34.2873 -58.1600 main 1192 1192 P_____________ AL011957 34.2873 -58.1600 EX 35 -4 6 220
1957159N25271 1957 32 NA NA NOT_NAMED 1957-06-15 06:00:00 ET 34.0000 -58.5000 35 hurdat_atl main 1209 1204 O_____________ hurdat_atl AL011957 34.0000 -58.5000 EX 35 -4 9 231
1957159N25271 1957 32 NA NA NOT_NAMED 1957-06-15 09:00:00 ET 33.7502 -58.9625 main 1209 1209 P_____________ AL011957 33.7502 -58.9625 EX 32 -4 10 239
1957159N25271 1957 32 NA NA NOT_NAMED 1957-06-15 12:00:00 ET 33.5000 -59.5000 30 hurdat_atl main 1221 1217 O_____________ hurdat_atl AL011957 33.5000 -59.5000 EX 30 -4 10 240
1957159N25271 1957 32 NA NA NOT_NAMED 1957-06-15 15:00:00 ET 33.2502 -60.0129 main 1224 1224 P_____________ AL011957 33.2502 -60.0129 EX 27 -4 10 239
1957159N25271 1957 32 NA NA NOT_NAMED 1957-06-15 18:00:00 ET 33.0000 -60.5000 25 hurdat_atl main 1241 O_____________ hurdat_atl AL011957 33.0000 -60.5000 EX 25 -4 10 239

IBTrACS Databaseについて

本データベースは、米国NOAAが公開する1842年以降の世界の熱帯低気圧のベストトラックデータアーカイブInternational Best Track Archive for Climate Stewardship (IBTrACS)を、ウェブで閲覧しやすい形式に変換したものです。

最終更新日:2021-11-26